createdAt,value
2022-10-01T00:04:28.339Z,4.72
2022-10-01T00:09:30.576Z,5.00
2022-10-01T00:14:32.180Z,5.10
2022-10-01T00:19:33.783Z,4.72
2022-10-01T00:24:37.620Z,5.78
2022-10-01T00:29:40.711Z,5.80
2022-10-01T00:34:42.187Z,6.43
2022-10-01T00:39:44.407Z,6.97
2022-10-01T00:44:46.364Z,6.75
2022-10-01T00:49:52.856Z,6.85
2022-10-01T00:55:02.156Z,6.70
2022-10-01T01:00:08.389Z,7.53
2022-10-01T01:05:12.127Z,7.88
2022-10-01T01:10:16.236Z,7.68
2022-10-01T01:15:26.142Z,8.25
2022-10-01T01:20:31.106Z,8.00
2022-10-01T01:26:21.741Z,8.73
2022-10-01T01:31:30.732Z,8.20
2022-10-01T01:36:38.046Z,7.82
2022-10-01T01:41:50.063Z,8.00
2022-10-01T01:46:55.085Z,9.82
2022-10-01T01:52:14.268Z,8.85
2022-10-01T01:57:20.205Z,7.95
2022-10-01T02:02:33.260Z,9.10
2022-10-01T02:07:42.309Z,9.07
2022-10-01T02:13:11.242Z,8.48
2022-10-01T02:18:26.037Z,9.52
2022-10-01T02:23:33.580Z,11.63
2022-10-01T02:28:38.867Z,11.37
2022-10-01T02:33:43.089Z,10.50
2022-10-01T02:38:46.710Z,9.63
2022-10-01T02:44:00.131Z,9.85
2022-10-01T02:49:02.833Z,10.00
2022-10-01T02:54:13.269Z,10.93
2022-10-01T02:59:14.821Z,11.75
2022-10-01T03:04:16.409Z,11.48
2022-10-01T03:09:17.913Z,10.95
2022-10-01T03:14:19.488Z,12.20
2022-10-01T03:19:21.175Z,13.63
2022-10-01T03:24:22.848Z,14.90
2022-10-01T03:29:25.712Z,12.68
2022-10-01T03:34:27.464Z,14.05
2022-10-01T03:39:29.050Z,13.15
2022-10-01T03:44:30.588Z,18.13
2022-10-01T03:49:32.180Z,17.58
2022-10-01T03:54:33.734Z,18.10
2022-10-01T03:59:36.131Z,15.65
2022-10-01T04:04:37.720Z,16.95
2022-10-01T04:09:39.254Z,15.88
2022-10-01T04:14:40.783Z,17.17
2022-10-01T04:19:42.304Z,16.80
2022-10-01T04:24:43.986Z,17.02
2022-10-01T04:29:45.501Z,16.98
2022-10-01T04:34:53.080Z,16.50
2022-10-01T04:39:54.798Z,19.37
2022-10-01T04:44:57.314Z,19.25
2022-10-01T04:49:58.812Z,19.90
2022-10-01T04:55:00.364Z,22.15
2022-10-01T05:00:04.024Z,21.85
2022-10-01T05:05:07.433Z,21.75
2022-10-01T05:10:12.564Z,23.13
2022-10-01T05:15:15.424Z,25.08
2022-10-01T05:20:20.069Z,23.27
2022-10-01T05:25:22.033Z,24.30
2022-10-01T05:30:26.544Z,23.08
2022-10-01T05:35:29.218Z,25.77
2022-10-01T05:40:31.186Z,23.33
2022-10-01T05:45:33.772Z,20.35
2022-10-01T05:50:40.315Z,17.98
2022-10-01T05:55:42.103Z,21.48
2022-10-01T06:00:44.122Z,23.77
2022-10-01T06:05:46.105Z,20.42
2022-10-01T06:10:48.798Z,20.58
2022-10-01T06:15:52.888Z,18.52
2022-10-01T06:20:54.449Z,19.98
2022-10-01T06:25:56.123Z,21.20
2022-10-01T06:30:57.693Z,17.40
2022-10-01T06:35:59.910Z,19.40
2022-10-01T06:41:03.761Z,19.63
2022-10-01T06:46:05.586Z,20.10
2022-10-01T06:51:08.571Z,20.02
2022-10-01T06:56:10.067Z,19.30
2022-10-01T07:01:11.689Z,18.50
2022-10-01T07:06:13.269Z,17.05
2022-10-01T07:11:14.847Z,18.85
2022-10-01T07:16:16.469Z,17.95
2022-10-01T07:21:18.015Z,19.35
2022-10-01T07:26:19.550Z,17.98
2022-10-01T07:31:21.651Z,18.48
2022-10-01T07:36:23.236Z,20.10
2022-10-01T07:41:24.935Z,16.95
2022-10-01T07:46:26.580Z,18.75
2022-10-01T07:51:29.252Z,17.85
2022-10-01T07:56:31.028Z,15.43
2022-10-01T08:01:33.350Z,16.10
2022-10-01T08:06:35.245Z,13.90
2022-10-01T08:11:38.002Z,12.45
2022-10-01T08:16:41.039Z,14.00
2022-10-01T08:21:42.902Z,12.05
2022-10-01T08:26:44.592Z,13.95
2022-10-01T08:31:46.208Z,19.45
2022-10-01T08:36:51.659Z,11.48
2022-10-01T08:42:17.443Z,12.10
2022-10-01T08:47:35.481Z,10.90
2022-10-01T08:52:49.052Z,11.27
2022-10-01T08:58:00.310Z,10.35
2022-10-01T09:03:06.135Z,11.43
2022-10-01T09:08:43.667Z,10.07
2022-10-01T09:14:03.291Z,14.50
2022-10-01T09:19:19.131Z,9.70
2022-10-01T09:24:56.039Z,10.55
2022-10-01T09:30:21.393Z,9.88
2022-10-01T09:35:29.022Z,9.68
2022-10-01T09:40:43.743Z,9.93
2022-10-01T09:45:47.148Z,13.73
2022-10-01T09:50:56.052Z,9.25
2022-10-01T09:56:04.054Z,8.77
2022-10-01T10:01:17.779Z,8.32
2022-10-01T10:06:27.193Z,8.77
2022-10-01T10:11:31.566Z,8.95
2022-10-01T10:16:37.227Z,7.05
2022-10-01T10:21:51.972Z,7.32
2022-10-01T10:26:57.282Z,7.07
2022-10-01T10:32:03.159Z,6.40
2022-10-01T10:37:13.804Z,5.63
2022-10-01T10:42:15.833Z,5.30
2022-10-01T10:47:21.132Z,7.93
2022-10-01T10:52:29.989Z,6.03
2022-10-01T10:57:36.647Z,34.72
2022-10-01T11:02:41.035Z,10.80
2022-10-01T11:07:45.163Z,5.70
2022-10-01T11:12:49.401Z,8.48
2022-10-01T11:18:05.232Z,4.25
2022-10-01T11:23:57.570Z,2.75
2022-10-01T11:29:30.301Z,2.80
2022-10-01T11:34:59.455Z,2.47
2022-10-01T11:40:13.124Z,1.92
2022-10-01T11:45:21.410Z,1.60
2022-10-01T11:50:31.280Z,1.50
2022-10-01T11:55:59.526Z,1.58
2022-10-01T12:01:11.755Z,1.70
2022-10-01T12:06:14.782Z,2.47
2022-10-01T12:11:21.552Z,20.38
2022-10-01T12:16:46.758Z,18.52
2022-10-01T12:22:15.305Z,2.60
2022-10-01T12:27:35.507Z,2.38
2022-10-01T12:33:08.777Z,2.03
2022-10-01T12:38:34.913Z,2.90
2022-10-01T12:43:42.472Z,4.20
2022-10-01T12:49:12.982Z,5.23
2022-10-01T12:54:42.836Z,1.45
2022-10-01T12:59:59.217Z,3.00
2022-10-01T13:05:24.646Z,1.50
2022-10-01T13:10:54.113Z,2.03
2022-10-01T13:15:59.831Z,1.50
2022-10-01T13:21:20.004Z,2.28
2022-10-01T13:26:41.738Z,2.22
2022-10-01T13:31:58.591Z,1.48
2022-10-01T13:37:17.721Z,2.67
2022-10-01T13:42:24.570Z,1.70
2022-10-01T13:47:27.847Z,12.43
2022-10-01T13:52:31.671Z,2.10
2022-10-01T13:57:37.228Z,1.67
2022-10-01T14:02:42.512Z,1.67
2022-10-01T14:07:47.681Z,1.30
2022-10-01T14:13:09.089Z,1.58
2022-10-01T14:18:21.605Z,1.40
2022-10-01T14:23:35.843Z,2.22
2022-10-01T14:29:07.038Z,5.68
2022-10-01T14:34:24.200Z,1.45
2022-10-01T14:39:29.643Z,2.08
2022-10-01T14:44:38.005Z,3.05
2022-10-01T14:49:39.587Z,4.80
2022-10-01T14:54:51.402Z,2.03
2022-10-01T14:59:53.918Z,1.50
2022-10-01T15:04:57.276Z,1.65
2022-10-01T15:10:07.167Z,2.10
2022-10-01T15:15:39.796Z,1.67
2022-10-01T15:20:59.496Z,1.52
2022-10-01T15:26:04.967Z,2.38
2022-10-01T15:31:07.079Z,3.47
2022-10-01T15:36:15.317Z,1.58
2022-10-01T15:41:32.516Z,1.75
2022-10-01T15:46:35.495Z,1.75
2022-10-01T15:52:22.033Z,2.25
2022-10-01T15:57:25.684Z,1.70
2022-10-01T16:02:30.796Z,1.70
2022-10-01T16:07:34.850Z,2.25
2022-10-01T16:12:36.545Z,2.00
2022-10-01T16:17:38.813Z,2.00
2022-10-01T16:22:40.802Z,1.35
2022-10-01T16:27:58.207Z,2.55
2022-10-01T16:33:02.371Z,1.80
2022-10-01T16:38:08.252Z,1.80
2022-10-01T16:43:24.239Z,1.58
2022-10-01T16:48:25.848Z,1.40
2022-10-01T16:53:27.820Z,1.42
2022-10-01T16:58:29.415Z,2.22
2022-10-01T17:03:30.920Z,1.23
2022-10-01T17:08:32.511Z,0.98
2022-10-01T17:13:34.065Z,1.05
2022-10-01T17:18:35.586Z,1.40
2022-10-01T17:23:37.114Z,1.17
2022-10-01T17:28:38.707Z,1.52
2022-10-01T17:33:40.235Z,1.98
2022-10-01T17:38:42.289Z,2.05
2022-10-01T17:43:43.805Z,1.55
2022-10-01T17:48:47.847Z,1.52
2022-10-01T17:53:49.450Z,1.35
2022-10-01T17:58:53.062Z,1.30
2022-10-01T18:03:55.664Z,1.20
2022-10-01T18:08:57.257Z,1.08
2022-10-01T18:13:59.120Z,1.10
2022-10-01T18:24:24.287Z,2.58
2022-10-01T18:29:27.540Z,1.10
2022-10-01T18:34:38.322Z,1.25
2022-10-01T18:39:43.157Z,1.45
2022-10-01T18:44:50.652Z,1.00
2022-10-01T18:50:25.701Z,0.98
2022-10-01T18:55:51.696Z,1.75
2022-10-01T19:01:11.636Z,1.45
2022-10-01T19:06:41.176Z,0.85
2022-10-01T19:12:01.411Z,2.10
2022-10-01T19:17:40.077Z,1.05
2022-10-01T19:23:02.941Z,1.70
2022-10-01T19:28:23.280Z,0.80
2022-10-01T19:33:25.092Z,1.13
2022-10-01T19:38:34.042Z,1.10
2022-10-01T19:43:49.873Z,1.70
2022-10-01T19:49:12.800Z,1.13
2022-10-01T19:54:17.484Z,0.75
2022-10-01T19:59:20.740Z,0.80
2022-10-01T20:04:40.081Z,0.70
2022-10-01T20:09:45.701Z,0.90
2022-10-01T20:15:09.174Z,0.80
2022-10-01T20:20:23.374Z,0.90
2022-10-01T20:25:32.091Z,1.38
2022-10-01T20:30:44.798Z,1.30
2022-10-01T20:36:02.963Z,1.88
2022-10-01T20:41:14.603Z,1.90
2022-10-01T20:46:25.623Z,0.60
2022-10-01T20:51:35.996Z,0.50
2022-10-01T20:56:59.852Z,1.08
2022-10-01T21:02:10.919Z,3.50
2022-10-01T21:07:37.796Z,0.68
2022-10-01T21:12:44.471Z,0.70
2022-10-01T21:18:09.270Z,0.70
2022-10-01T21:23:53.437Z,0.85
2022-10-01T21:29:24.321Z,1.15
2022-10-01T21:34:43.272Z,1.23
2022-10-01T21:40:23.717Z,1.42
2022-10-01T21:45:29.872Z,0.70
2022-10-01T21:50:51.945Z,2.03
2022-10-01T21:56:12.421Z,1.48
2022-10-01T22:01:46.213Z,1.38
2022-10-01T22:06:51.469Z,1.67
2022-10-01T22:11:57.098Z,0.90
2022-10-01T22:17:04.454Z,1.58
2022-10-01T22:22:21.298Z,0.60
2022-10-01T22:27:47.539Z,2.00
2022-10-01T22:33:10.543Z,1.65
2022-10-01T22:38:27.141Z,2.05
2022-10-01T22:43:29.351Z,2.35
2022-10-01T22:48:54.223Z,1.33
2022-10-01T22:54:07.632Z,1.88
2022-10-01T22:59:14.207Z,3.28
2022-10-01T23:04:49.101Z,2.38
2022-10-01T23:10:11.975Z,3.42
2022-10-01T23:15:25.903Z,2.28
2022-10-01T23:20:34.516Z,1.95
2022-10-01T23:25:57.812Z,1.35
2022-10-01T23:31:02.282Z,1.02
2022-10-01T23:36:29.106Z,1.73
2022-10-01T23:41:46.800Z,3.75
2022-10-01T23:46:51.621Z,1.13
2022-10-01T23:52:14.612Z,2.35
2022-10-01T23:57:22.395Z,5.68
